METAR πλησιέστερων αεροδρομίων

 

LGIR - Iraklion Airport
Απόσταση από το σταθμό: ΒΔ 62km
Ενημερώθηκε: 27/11/2020 05:20
ΟΧΙ τωρινά
Σχεδόν νεφελώδης
Σχεδόν νεφελώδης
 Ανεμος από Β
Ανεμος: Β 20 km/h
Θερμοκρασία: 16°C
Σημείο Δρόσου: 12°C
Υγρασία: 77%
Βαρόμετρο: 1018 hPa
Νέφη: Σχεδόν νεφελώδης
Ορατότητα: 10 km
Λεπτομέρειες νεφών: Λίγα σύννεφα 549 m
Σχεδόν νεφελώδης 762 m
2020/11/27 03:20 LGIR 270320Z 35011KT 9999 FEW018 BKN025 16/12 Q1018 NOSIG
LGSA - Souda/Chania Airport
Απόσταση από το σταθμό: ΔΒΔ 154km
Ενημερώθηκε: 27/11/2020 05:20
ΟΧΙ τωρινά
Μερικώς νεφελώδης
Μερικώς νεφελώδης
 Ανεμος από calm
Ανεμος: Απνοια
Θερμοκρασία: 12°C
Σημείο Δρόσου: 9°C
Υγρασία: 82%
Βαρόμετρο: 1019 hPa
Νέφη: Μερικώς νεφελώδης
Ορατότητα: 10 km
Λεπτομέρειες νεφών: Λίγα σύννεφα 610 m
Μερικώς νεφελώδης 914 m
2020/11/27 03:20 LGSA 270320Z 00000KT 9999 FEW020 SCT030 12/09 Q1019